Time;durP1;ratioP1;P1;durP2;ratioP2;P2;SDS_P1;SDS_P2;PMS_P1;PMS_P2;Temp;Humidity;BMP_temperature;BMP_pressure;BME280_temperature;BME280_humidity;BME280_pressure;Samples;Min_cycle;Max_cycle;Signal;HPM_P1;HPM_P2
2024/01/05 00:00:47;;;;;;;10.38;5.10;;;2.70;99.90;;;;;;5013170;28;20050;-88
2024/01/05 00:03:12;;;;;;;9.52;4.60;;;3.90;99.90;;;;;;5017652;28;20149;-87
2024/01/05 00:05:39;;;;;;;9.95;4.78;;;2.90;99.90;;;;;;4988922;28;20063;-87
2024/01/05 00:08:05;;;;;;;14.05;4.60;;;4.00;99.90;;;;;;5000782;28;20041;-88
2024/01/05 00:10:31;;;;;;;8.68;4.22;;;4.10;99.90;;;;;;4965097;28;20038;-89
2024/01/05 00:12:57;;;;;;;10.07;4.68;;;4.30;99.90;;;;;;4997015;28;20514;-89
2024/01/05 00:15:22;;;;;;;10.00;4.72;;;4.00;99.90;;;;;;5034633;28;20530;-88
2024/01/05 00:17:48;;;;;;;10.80;4.95;;;2.60;99.90;;;;;;4989258;28;20049;-88
2024/01/05 00:20:14;;;;;;;10.52;4.88;;;3.00;99.90;;;;;;4998494;28;20398;-89
2024/01/05 00:22:41;;;;;;;11.30;4.90;;;2.70;99.90;;;;;;5034413;28;20077;-88
2024/01/05 00:25:07;;;;;;;10.75;4.82;;;4.20;99.90;;;;;;4997940;28;20486;-88
2024/01/05 00:27:32;;;;;;;9.77;4.75;;;2.70;99.90;;;;;;4998980;28;20057;-89
2024/01/05 00:29:58;;;;;;;10.00;4.88;;;4.20;99.90;;;;;;4993830;28;20046;-90
2024/01/05 00:32:24;;;;;;;10.68;5.10;;;4.10;99.90;;;;;;4996135;28;20045;-89
2024/01/05 00:34:50;;;;;;;10.30;5.30;;;2.70;99.90;;;;;;5004793;28;20743;-89
2024/01/05 00:37:15;;;;;;;10.45;5.00;;;4.50;99.90;;;;;;4973396;28;20041;-89
2024/01/05 00:39:41;;;;;;;12.23;5.70;;;4.10;99.90;;;;;;4973262;28;20077;-89
2024/01/05 00:42:08;;;;;;;11.68;5.60;;;3.90;99.90;;;;;;4988444;28;20124;-90
2024/01/05 00:44:33;;;;;;;12.27;5.43;;;2.60;99.90;;;;;;4988565;28;20058;-90
2024/01/05 00:46:59;;;;;;;10.50;5.47;;;2.50;99.90;;;;;;5009783;28;20124;-90
2024/01/05 00:49:25;;;;;;;11.00;5.47;;;4.70;99.90;;;;;;4999254;28;20037;-90
2024/01/05 00:51:50;;;;;;;14.10;5.88;;;4.30;99.90;;;;;;4977227;28;20040;-90
2024/01/05 00:54:16;;;;;;;11.82;6.15;;;3.50;99.90;;;;;;4968259;28;20038;-89
2024/01/05 00:56:42;;;;;;;13.20;6.10;;;2.50;99.90;;;;;;4971574;28;20042;-89
2024/01/05 00:59:07;;;;;;;13.98;6.93;;;3.90;99.90;;;;;;4997624;28;20128;-89
2024/01/05 01:01:33;;;;;;;14.30;6.05;;;4.10;99.90;;;;;;4984472;28;20172;-89
2024/01/05 01:03:59;;;;;;;10.73;5.07;;;2.60;99.90;;;;;;4974587;28;20088;-89
2024/01/05 01:06:25;;;;;;;12.75;5.93;;;3.00;99.90;;;;;;4970021;28;20038;-89
2024/01/05 01:08:51;;;;;;;11.52;5.60;;;2.60;99.90;;;;;;5036591;28;20045;-89
2024/01/05 01:11:17;;;;;;;12.95;5.70;;;4.00;99.90;;;;;;5032219;28;20136;-89
2024/01/05 01:13:44;;;;;;;11.63;5.47;;;2.60;99.90;;;;;;4970275;28;20086;-89
2024/01/05 01:16:11;;;;;;;11.30;5.70;;;2.60;99.90;;;;;;5004261;28;20057;-88
2024/01/05 01:18:37;;;;;;;12.25;5.90;;;2.90;99.90;;;;;;5005190;28;21234;-89
2024/01/05 01:21:03;;;;;;;11.20;5.22;;;3.20;99.90;;;;;;4991421;28;20158;-89
2024/01/05 01:23:29;;;;;;;12.13;5.53;;;2.60;99.90;;;;;;4985245;28;20649;-90
2024/01/05 01:25:54;;;;;;;12.50;5.60;;;4.10;99.90;;;;;;4995968;28;20058;-88
2024/01/05 01:28:20;;;;;;;12.15;5.80;;;3.00;99.90;;;;;;5013384;28;20400;-89
2024/01/05 01:30:46;;;;;;;12.25;5.47;;;2.50;99.90;;;;;;5004699;28;20057;-88
2024/01/05 01:33:11;;;;;;;10.00;5.13;;;3.20;99.90;;;;;;4970575;28;20550;-89
2024/01/05 01:35:37;;;;;;;11.00;5.20;;;3.20;99.90;;;;;;4976156;28;20042;-90
2024/01/05 01:38:03;;;;;;;10.45;4.95;;;4.00;99.90;;;;;;4979680;28;20045;-89
2024/01/05 01:40:29;;;;;;;12.18;5.15;;;2.40;99.90;;;;;;4980521;28;20045;-89
2024/01/05 01:42:55;;;;;;;11.45;5.32;;;2.50;99.90;;;;;;5015155;28;20277;-89
2024/01/05 01:45:21;;;;;;;13.40;5.55;;;3.30;99.90;;;;;;5004645;28;20041;-89
2024/01/05 01:47:47;;;;;;;11.38;5.35;;;3.20;99.90;;;;;;4972179;28;20123;-89
2024/01/05 01:50:14;;;;;;;11.10;5.22;;;2.50;99.90;;;;;;4980190;28;20038;-89
2024/01/05 01:52:45;;;;;;;11.18;5.03;;;3.70;99.90;;;;;;5031924;28;20397;-88
2024/01/05 01:55:12;;;;;;;11.35;5.20;;;4.40;99.90;;;;;;4996818;28;20044;-89
2024/01/05 01:57:39;;;;;;;12.80;5.47;;;3.70;99.90;;;;;;4986960;28;20034;-89
2024/01/05 02:00:06;;;;;;;11.07;5.68;;;2.60;99.90;;;;;;5034338;28;20056;-89
2024/01/05 02:02:33;;;;;;;12.48;5.72;;;2.60;99.90;;;;;;5007523;28;20047;-89
2024/01/05 02:04:59;;;;;;;12.63;5.50;;;2.50;99.90;;;;;;4979526;28;20032;-89
2024/01/05 02:07:25;;;;;;;12.25;5.38;;;2.40;99.90;;;;;;5033232;28;20050;-88
2024/01/05 02:09:51;;;;;;;11.82;5.32;;;2.40;99.90;;;;;;4983556;28;20048;-89
2024/01/05 02:12:17;;;;;;;12.10;6.00;;;3.80;99.90;;;;;;5035238;28;20121;-89
2024/01/05 02:14:43;;;;;;;12.48;5.90;;;3.70;99.90;;;;;;4984005;28;20081;-90
2024/01/05 02:17:32;;;;;;;13.40;5.50;;;3.20;99.90;;;;;;5020355;28;20088;-90
2024/01/05 02:19:58;;;;;;;10.55;5.20;;;2.40;99.90;;;;;;5002785;28;20033;-88
2024/01/05 02:22:29;;;;;;;13.30;6.13;;;3.60;99.90;;;;;;4990840;28;20092;-88
2024/01/05 02:24:58;;;;;;;11.82;5.78;;;3.00;99.90;;;;;;5017435;28;20105;-88
2024/01/05 02:27:24;;;;;;;14.68;5.75;;;2.40;99.90;;;;;;4987821;28;20581;-89
2024/01/05 02:29:50;;;;;;;13.20;6.07;;;4.10;99.90;;;;;;5004883;28;20030;-89
2024/01/05 02:32:16;;;;;;;12.88;5.38;;;2.60;99.90;;;;;;4977409;28;20044;-88
2024/01/05 02:34:42;;;;;;;11.75;5.45;;;2.60;99.90;;;;;;4981853;28;20494;-89
2024/01/05 02:37:07;;;;;;;12.52;6.22;;;2.40;99.90;;;;;;5036400;28;20236;-89
2024/01/05 02:39:33;;;;;;;13.55;5.95;;;2.50;99.90;;;;;;5022667;28;20073;-89
2024/01/05 02:41:59;;;;;;;13.23;5.72;;;4.10;99.90;;;;;;5021698;28;20056;-88
2024/01/05 02:44:24;;;;;;;11.95;5.63;;;2.40;99.90;;;;;;4975218;28;20042;-88
2024/01/05 02:46:51;;;;;;;12.10;5.55;;;2.40;99.90;;;;;;4986500;28;20038;-89
2024/01/05 02:49:16;;;;;;;13.10;6.45;;;3.50;99.90;;;;;;4991502;28;20030;-88
2024/01/05 02:51:43;;;;;;;13.35;5.82;;;4.50;99.90;;;;;;4980653;28;20125;-89
2024/01/05 02:54:09;;;;;;;12.77;6.10;;;2.50;99.90;;;;;;4991635;28;20038;-88
2024/01/05 02:56:34;;;;;;;13.57;6.00;;;4.00;99.90;;;;;;4977724;28;20030;-88
2024/01/05 02:59:01;;;;;;;13.05;6.03;;;4.20;99.90;;;;;;5003194;28;20093;-88
2024/01/05 03:01:27;;;;;;;13.98;6.30;;;3.90;99.90;;;;;;4991360;28;20070;-88
2024/01/05 03:03:52;;;;;;;13.27;6.10;;;4.30;99.90;;;;;;4983094;28;20588;-88
2024/01/05 03:06:19;;;;;;;12.85;5.72;;;2.70;99.90;;;;;;4972324;28;20046;-87
2024/01/05 03:08:45;;;;;;;14.20;6.75;;;3.20;99.90;;;;;;5004489;28;20128;-88
2024/01/05 03:11:11;;;;;;;12.35;5.85;;;2.50;99.90;;;;;;4990574;28;20594;-88
2024/01/05 03:13:37;;;;;;;12.70;6.15;;;2.50;99.90;;;;;;5008176;28;20080;-88
2024/01/05 03:16:04;;;;;;;12.90;6.28;;;3.70;99.90;;;;;;5036616;28;20492;-88
2024/01/05 03:18:30;;;;;;;12.73;6.20;;;2.50;99.90;;;;;;4989485;28;20065;-89
2024/01/05 03:20:56;;;;;;;12.20;6.03;;;3.70;99.90;;;;;;4972680;28;20066;-88
2024/01/05 03:23:21;;;;;;;14.30;6.47;;;3.50;99.90;;;;;;5005161;28;20026;-88
2024/01/05 03:25:48;;;;;;;13.35;6.07;;;4.60;99.90;;;;;;5007542;28;20727;-88
2024/01/05 03:28:14;;;;;;;13.27;6.20;;;2.40;99.90;;;;;;4989984;28;20037;-87
2024/01/05 03:30:41;;;;;;;12.30;5.32;;;2.50;99.90;;;;;;5007140;28;20525;-88
2024/01/05 03:33:07;;;;;;;12.95;6.47;;;3.60;99.90;;;;;;4972490;28;20113;-88
2024/01/05 03:35:33;;;;;;;12.77;6.03;;;2.90;99.90;;;;;;5023415;28;20679;-88
2024/01/05 03:37:59;;;;;;;14.15;6.55;;;3.30;99.90;;;;;;4983412;28;20049;-88
2024/01/05 03:40:25;;;;;;;14.35;6.47;;;4.00;99.90;;;;;;5006874;28;20060;-88
2024/01/05 03:42:50;;;;;;;13.00;6.28;;;3.90;99.90;;;;;;4975800;28;20042;-88
2024/01/05 03:45:16;;;;;;;14.80;6.60;;;2.40;99.90;;;;;;4993895;28;20034;-88
2024/01/05 03:47:42;;;;;;;13.35;6.70;;;2.50;99.90;;;;;;4972860;28;20509;-88
2024/01/05 03:50:08;;;;;;;13.43;5.75;;;2.40;99.90;;;;;;5004310;28;20034;-88
2024/01/05 03:52:34;;;;;;;13.75;6.47;;;2.30;99.90;;;;;;5037749;28;20132;-88
2024/01/05 03:55:01;;;;;;;14.73;6.18;;;2.60;99.90;;;;;;4972762;28;20072;-87
2024/01/05 03:57:27;;;;;;;13.02;6.32;;;4.10;99.90;;;;;;4985502;28;20046;-88
2024/01/05 03:59:53;;;;;;;12.15;5.70;;;3.00;99.90;;;;;;5001669;28;20049;-88
2024/01/05 04:02:19;;;;;;;13.68;5.88;;;2.90;99.90;;;;;;4984545;28;20561;-88
2024/01/05 04:04:45;;;;;;;13.00;6.00;;;2.40;99.90;;;;;;5022361;28;20510;-88
2024/01/05 04:07:11;;;;;;;12.82;6.20;;;2.40;99.90;;;;;;5004553;28;20038;-88
2024/01/05 04:09:37;;;;;;;14.25;6.20;;;2.60;99.90;;;;;;5002255;28;20101;-88
2024/01/05 04:12:02;;;;;;;12.77;5.63;;;2.60;99.90;;;;;;5006011;28;20048;-88
2024/01/05 04:14:28;;;;;;;12.90;6.22;;;2.50;99.90;;;;;;5005173;28;20053;-88
2024/01/05 04:16:54;;;;;;;12.18;5.75;;;3.80;99.90;;;;;;4981387;28;20446;-88
2024/01/05 04:19:20;;;;;;;12.10;5.82;;;2.50;99.90;;;;;;5007979;28;20048;-88
2024/01/05 04:21:45;;;;;;;11.32;5.70;;;2.40;99.90;;;;;;4992151;28;20046;-88
2024/01/05 04:24:11;;;;;;;12.57;5.85;;;2.50;99.90;;;;;;4989300;28;20509;-87
2024/01/05 04:26:37;;;;;;;12.45;5.70;;;3.90;99.90;;;;;;5003232;28;20463;-88
2024/01/05 04:29:03;;;;;;;13.55;6.35;;;2.50;99.90;;;;;;4992796;28;20042;-89
2024/01/05 04:31:29;;;;;;;11.23;5.57;;;3.90;99.90;;;;;;5013430;28;20054;-88
2024/01/05 04:33:55;;;;;;;11.95;5.88;;;3.80;99.90;;;;;;4971792;28;20033;-88
2024/01/05 04:36:21;;;;;;;12.02;5.68;;;3.80;99.90;;;;;;4987871;28;20495;-87
2024/01/05 04:38:47;;;;;;;11.93;5.35;;;3.40;99.90;;;;;;4987292;28;20046;-88
2024/01/05 04:41:14;;;;;;;11.10;5.50;;;2.70;99.90;;;;;;4997942;28;20035;-87
2024/01/05 04:43:40;;;;;;;11.13;5.28;;;2.90;99.90;;;;;;5004081;28;20041;-87
2024/01/05 04:46:07;;;;;;;12.77;5.20;;;2.70;99.90;;;;;;4987574;28;20038;-88
2024/01/05 04:48:33;;;;;;;11.55;5.70;;;3.60;99.90;;;;;;4978606;28;20088;-88
2024/01/05 04:51:00;;;;;;;11.00;5.53;;;2.50;99.90;;;;;;4969702;28;20093;-89
2024/01/05 04:53:25;;;;;;;10.88;5.00;;;4.30;99.90;;;;;;4984335;28;20046;-89
2024/01/05 04:55:51;;;;;;;9.68;4.57;;;2.70;99.90;;;;;;5005444;28;20088;-89
2024/01/05 04:58:17;;;;;;;12.10;5.68;;;2.50;99.90;;;;;;4974415;28;20052;-89
2024/01/05 05:00:42;;;;;;;11.60;5.13;;;2.60;99.90;;;;;;5000632;28;20042;-88
2024/01/05 05:03:09;;;;;;;10.65;5.05;;;3.70;99.90;;;;;;5003482;28;20030;-89
2024/01/05 05:05:36;;;;;;;12.10;5.63;;;2.60;99.90;;;;;;4989317;28;20138;-88
2024/01/05 05:08:02;;;;;;;10.60;5.03;;;3.80;99.90;;;;;;4987765;28;20073;-89
2024/01/05 05:10:28;;;;;;;11.48;5.32;;;2.60;99.90;;;;;;5004042;28;20088;-88
2024/01/05 05:12:53;;;;;;;10.75;5.03;;;2.60;99.90;;;;;;4973135;28;20049;-89
2024/01/05 05:15:19;;;;;;;10.57;4.97;;;2.50;99.90;;;;;;4986750;28;20033;-90
2024/01/05 05:17:45;;;;;;;11.88;5.22;;;2.60;99.90;;;;;;5036012;28;20042;-88
2024/01/05 05:20:11;;;;;;;10.48;4.72;;;3.70;99.90;;;;;;4972064;28;20060;-88
2024/01/05 05:22:37;;;;;;;10.38;4.75;;;2.50;99.90;;;;;;5035372;28;20039;-89
2024/01/05 05:25:03;;;;;;;10.98;5.32;;;3.10;99.90;;;;;;4987110;28;20116;-88
2024/01/05 05:27:28;;;;;;;10.00;4.93;;;2.80;99.90;;;;;;5031162;28;20034;-88
2024/01/05 05:29:54;;;;;;;10.77;4.93;;;2.70;99.90;;;;;;4987064;28;20589;-88
2024/01/05 05:32:20;;;;;;;10.57;5.03;;;2.70;99.90;;;;;;4966531;28;20434;-90
2024/01/05 05:34:45;;;;;;;11.27;5.05;;;2.50;99.90;;;;;;4966520;28;20049;-89
2024/01/05 05:37:11;;;;;;;10.38;5.00;;;2.80;99.90;;;;;;5031530;28;20490;-89
2024/01/05 05:39:37;;;;;;;11.23;4.90;;;2.90;99.90;;;;;;4987932;28;20076;-89
2024/01/05 05:42:03;;;;;;;11.13;5.20;;;2.70;99.90;;;;;;5000894;28;20052;-89
2024/01/05 05:44:29;;;;;;;11.02;4.78;;;2.50;99.90;;;;;;4988177;28;20108;-89
2024/01/05 05:46:56;;;;;;;10.98;4.95;;;2.60;99.90;;;;;;5002609;28;20049;-89
2024/01/05 05:49:22;;;;;;;10.38;4.68;;;3.60;99.90;;;;;;4980069;28;20558;-88
2024/01/05 05:51:47;;;;;;;10.82;5.55;;;2.60;99.90;;;;;;4979941;28;20132;-88
2024/01/05 05:54:13;;;;;;;10.80;5.20;;;4.60;99.90;;;;;;5035848;28;20052;-89
2024/01/05 05:56:40;;;;;;;10.63;4.50;;;2.70;99.90;;;;;;4995993;28;20030;-89
2024/01/05 05:59:05;;;;;;;11.10;4.88;;;4.20;99.90;;;;;;4987041;28;20044;-89
2024/01/05 06:01:31;;;;;;;9.50;4.35;;;2.50;99.90;;;;;;4994304;28;20042;-89
2024/01/05 06:03:57;;;;;;;11.27;5.63;;;4.00;99.90;;;;;;4988546;28;20044;-89
2024/01/05 06:06:24;;;;;;;10.13;4.90;;;2.70;99.90;;;;;;4987794;28;20129;-88
2024/01/05 06:08:51;;;;;;;11.35;4.80;;;4.80;99.90;;;;;;4991558;28;20452;-89
2024/01/05 06:11:18;;;;;;;10.48;5.10;;;2.70;99.90;;;;;;5003859;28;20065;-88
2024/01/05 06:13:44;;;;;;;10.52;5.20;;;2.60;99.90;;;;;;5041505;28;20112;-89
2024/01/05 06:16:10;;;;;;;10.80;4.85;;;3.70;99.90;;;;;;5016570;28;20048;-89
2024/01/05 06:18:37;;;;;;;12.27;5.30;;;2.60;99.90;;;;;;4981913;28;20111;-88
2024/01/05 06:21:03;;;;;;;11.40;5.13;;;3.30;99.90;;;;;;5038326;28;20117;-89
2024/01/05 06:23:30;;;;;;;11.38;5.22;;;2.60;99.90;;;;;;5020857;28;20072;-89
2024/01/05 06:25:56;;;;;;;11.48;5.43;;;4.00;99.90;;;;;;4990743;28;20549;-89
2024/01/05 06:28:22;;;;;;;11.32;5.00;;;2.70;99.90;;;;;;4991143;28;20042;-89
2024/01/05 06:30:48;;;;;;;10.40;5.47;;;2.90;99.90;;;;;;5013847;28;20045;-88
2024/01/05 06:33:13;;;;;;;11.00;5.32;;;3.50;99.90;;;;;;5005804;28;20070;-89
2024/01/05 06:35:39;;;;;;;10.60;5.72;;;4.30;99.90;;;;;;4998884;28;20142;-89
2024/01/05 06:38:04;;;;;;;10.63;5.07;;;2.60;99.90;;;;;;5038764;28;20396;-89
2024/01/05 06:40:30;;;;;;;11.27;5.57;;;4.10;99.90;;;;;;4988389;28;20041;-88
2024/01/05 06:42:57;;;;;;;11.57;6.28;;;3.60;99.90;;;;;;5005537;28;20034;-89
2024/01/05 06:45:24;;;;;;;10.77;4.82;;;2.90;99.90;;;;;;4992376;28;20470;-88
2024/01/05 06:47:49;;;;;;;11.27;5.45;;;3.30;99.90;;;;;;5008176;28;20050;-89
2024/01/05 06:50:15;;;;;;;10.60;4.65;;;4.10;99.90;;;;;;5034685;28;20556;-89
2024/01/05 06:52:41;;;;;;;10.55;4.78;;;3.80;99.90;;;;;;4990637;28;20037;-88
2024/01/05 06:55:07;;;;;;;11.15;5.05;;;2.70;99.90;;;;;;4976371;28;20037;-88
2024/01/05 06:57:35;;;;;;;10.52;4.85;;;2.80;99.90;;;;;;4976564;28;20049;-89
2024/01/05 07:00:03;;;;;;;10.50;5.00;;;3.50;99.90;;;;;;5007282;28;20554;-89
2024/01/05 07:02:29;;;;;;;10.77;5.38;;;2.70;99.90;;;;;;5003504;28;20042;-88
2024/01/05 07:04:55;;;;;;;10.90;5.05;;;2.70;99.90;;;;;;4973760;28;20057;-88
2024/01/05 07:07:21;;;;;;;10.68;4.80;;;2.70;99.90;;;;;;5007604;28;20042;-89
2024/01/05 07:09:46;;;;;;;11.05;4.63;;;4.30;99.90;;;;;;5023274;28;20037;-88
2024/01/05 07:12:12;;;;;;;9.55;4.68;;;4.50;99.90;;;;;;5021147;28;20041;-88
2024/01/05 07:14:37;;;;;;;10.20;5.30;;;3.80;99.90;;;;;;5007687;28;20074;-89
2024/01/05 07:17:03;;;;;;;10.40;4.47;;;4.90;99.90;;;;;;4971878;28;20479;-89
2024/01/05 07:19:29;;;;;;;11.93;5.35;;;4.40;99.90;;;;;;5022644;28;20107;-88
2024/01/05 07:21:54;;;;;;;10.80;5.20;;;4.30;99.90;;;;;;4972726;28;20046;-88
2024/01/05 07:24:20;;;;;;;11.75;5.38;;;3.60;99.90;;;;;;4971094;28;20050;-89
2024/01/05 07:26:46;;;;;;;10.68;5.35;;;3.10;99.90;;;;;;4972841;28;20048;-89
2024/01/05 07:29:12;;;;;;;11.07;5.65;;;3.80;99.90;;;;;;4990148;28;20041;-89
2024/01/05 07:31:38;;;;;;;11.15;5.70;;;4.20;99.90;;;;;;4975184;28;20038;-89
2024/01/05 07:34:03;;;;;;;11.63;5.88;;;4.10;99.90;;;;;;5033297;28;20038;-89
2024/01/05 07:36:29;;;;;;;11.10;5.72;;;3.70;99.90;;;;;;4961949;28;20034;-88
2024/01/05 07:38:58;;;;;;;10.80;5.35;;;3.00;99.90;;;;;;4972891;28;20034;-89
2024/01/05 07:41:28;;;;;;;14.50;6.43;;;4.60;99.90;;;;;;5034435;28;20502;-88
2024/01/05 07:43:54;;;;;;;14.80;6.72;;;5.00;99.90;;;;;;5031915;28;20034;-89
2024/01/05 07:46:22;;;;;;;12.95;5.78;;;2.90;99.90;;;;;;5014933;28;20045;-90
2024/01/05 07:48:48;;;;;;;13.63;5.95;;;4.40;99.90;;;;;;5010630;28;20148;-89
2024/01/05 07:51:18;;;;;;;11.05;5.80;;;4.10;99.90;;;;;;5013732;28;20128;-89
2024/01/05 07:53:44;;;;;;;13.18;6.15;;;3.00;99.90;;;;;;4977905;28;20585;-88
2024/01/05 07:56:10;;;;;;;12.50;6.25;;;4.40;99.90;;;;;;5007243;28;20073;-89
2024/01/05 07:58:35;;;;;;;12.60;6.50;;;4.80;99.90;;;;;;4971948;28;20041;-88
2024/01/05 08:01:01;;;;;;;11.45;5.75;;;4.20;99.90;;;;;;5032396;28;20410;-89
2024/01/05 08:03:28;;;;;;;12.20;6.30;;;4.40;99.90;;;;;;4972243;28;20048;-89
2024/01/05 08:05:54;;;;;;;12.90;6.75;;;3.10;99.90;;;;;;5005453;28;20038;-88
2024/01/05 08:08:20;;;;;;;12.85;6.63;;;4.10;99.90;;;;;;4983363;28;20503;-89
2024/01/05 08:10:45;;;;;;;14.57;7.35;;;5.10;99.90;;;;;;5003749;28;20121;-89
2024/01/05 08:13:11;;;;;;;12.98;6.20;;;4.90;99.90;;;;;;4971885;28;20069;-89
2024/01/05 08:15:37;;;;;;;11.93;6.75;;;4.60;99.90;;;;;;5036913;28;20472;-89
2024/01/05 08:18:03;;;;;;;16.42;7.75;;;4.40;99.90;;;;;;4983867;28;20030;-89
2024/01/05 08:20:29;;;;;;;15.68;7.10;;;3.10;99.90;;;;;;4989339;28;20160;-90
2024/01/05 08:22:55;;;;;;;13.57;7.07;;;3.20;99.90;;;;;;4985467;28;20129;-90
2024/01/05 08:25:20;;;;;;;12.80;6.93;;;3.40;99.90;;;;;;4987840;28;20424;-90
2024/01/05 08:27:46;;;;;;;14.15;7.50;;;3.50;99.90;;;;;;4988349;28;20037;-90
2024/01/05 08:30:12;;;;;;;13.32;7.45;;;1.90;99.90;;;;;;5022035;28;20030;-88
2024/01/05 08:32:38;;;;;;;13.52;7.22;;;3.10;99.90;;;;;;4980107;28;20052;-88
2024/01/05 08:35:07;;;;;;;13.13;7.50;;;3.10;99.90;;;;;;4984999;28;20435;-88
2024/01/05 08:37:33;;;;;;;14.25;7.28;;;3.20;99.90;;;;;;4999628;28;20041;-89
2024/01/05 08:39:59;;;;;;;15.05;7.97;;;3.40;99.90;;;;;;4986863;28;20042;-89
2024/01/05 08:42:25;;;;;;;13.63;7.53;;;4.90;99.90;;;;;;5023446;28;20037;-89
2024/01/05 08:44:51;;;;;;;15.52;8.48;;;4.60;99.90;;;;;;4983480;28;20042;-88
2024/01/05 08:47:17;;;;;;;14.18;7.32;;;4.20;99.90;;;;;;5008976;28;20455;-88
2024/01/05 08:49:43;;;;;;;14.30;7.63;;;3.20;99.90;;;;;;5032549;28;20045;-89
2024/01/05 08:52:09;;;;;;;14.30;8.45;;;4.30;99.90;;;;;;5034115;28;20107;-89
2024/01/05 08:54:35;;;;;;;13.45;7.43;;;3.10;99.90;;;;;;5040495;28;20069;-89
2024/01/05 08:57:00;;;;;;;13.98;7.85;;;3.10;99.90;;;;;;4990791;28;20660;-90
2024/01/05 08:59:26;;;;;;;13.73;7.20;;;4.30;99.90;;;;;;5000642;28;20073;-90
2024/01/05 09:01:52;;;;;;;15.80;7.82;;;3.40;99.90;;;;;;4975000;28;20050;-89
2024/01/05 09:04:17;;;;;;;13.00;7.13;;;3.40;99.90;;;;;;4971660;28;20181;-88
2024/01/05 09:06:44;;;;;;;13.25;7.25;;;4.60;99.90;;;;;;4974937;28;20053;-89
2024/01/05 09:09:10;;;;;;;15.30;8.13;;;3.30;99.90;;;;;;5000555;28;20045;-88
2024/01/05 09:11:39;;;;;;;13.80;8.05;;;4.60;99.90;;;;;;5002966;28;20042;-88
2024/01/05 09:14:05;;;;;;;13.82;7.65;;;3.30;99.90;;;;;;5010492;28;20461;-89
2024/01/05 09:16:31;;;;;;;12.95;7.00;;;4.40;99.90;;;;;;4996649;28;20065;-89
2024/01/05 09:18:56;;;;;;;14.30;7.70;;;4.60;99.90;;;;;;4980890;28;20092;-89
2024/01/05 09:21:22;;;;;;;12.35;7.18;;;3.50;99.90;;;;;;4997335;28;20613;-89
2024/01/05 09:23:48;;;;;;;14.82;7.20;;;4.50;99.90;;;;;;4990780;28;20081;-89
2024/01/05 09:26:17;;;;;;;13.35;7.05;;;3.30;99.90;;;;;;5009169;28;20049;-89
2024/01/05 09:28:43;;;;;;;13.00;7.18;;;4.10;99.90;;;;;;5026150;28;20044;-90
2024/01/05 09:31:12;;;;;;;13.80;7.43;;;3.30;99.90;;;;;;5006092;28;20423;-90
2024/01/05 09:33:38;;;;;;;13.93;7.15;;;3.40;99.90;;;;;;5001132;28;20072;-89
2024/01/05 09:36:04;;;;;;;11.23;6.35;;;4.80;99.90;;;;;;4978449;28;20046;-89
2024/01/05 09:38:30;;;;;;;12.75;7.18;;;3.50;99.90;;;;;;4985083;28;20097;-89
2024/01/05 09:40:55;;;;;;;13.80;7.45;;;4.00;99.90;;;;;;5009464;28;20419;-89
2024/01/05 09:43:24;;;;;;;12.98;7.18;;;4.50;99.90;;;;;;4982028;28;20038;-90
2024/01/05 09:45:51;;;;;;;13.15;7.15;;;3.40;99.90;;;;;;5033541;28;20029;-90
2024/01/05 09:48:19;;;;;;;12.48;7.07;;;4.90;99.90;;;;;;5000114;28;20045;-90
2024/01/05 09:50:53;;;;;;;12.90;7.20;;;4.20;99.90;;;;;;4992589;28;20121;-91
2024/01/05 09:53:19;;;;;;;14.45;7.75;;;3.70;99.90;;;;;;4987338;28;20491;-87
2024/01/05 09:55:49;;;;;;;14.13;7.90;;;3.60;99.90;;;;;;5007209;28;20076;-89
2024/01/05 09:58:16;;;;;;;13.80;7.75;;;3.70;99.90;;;;;;5011373;28;20041;-88
2024/01/05 10:00:49;;;;;;;13.55;7.93;;;3.60;99.90;;;;;;5000248;28;20050;-88
2024/01/05 10:03:24;;;;;;;14.23;8.05;;;4.90;99.90;;;;;;4992141;28;20047;-89
2024/01/05 10:05:54;;;;;;;15.65;7.80;;;3.60;99.90;;;;;;5007827;28;20450;-89
2024/01/05 10:08:21;;;;;;;14.27;8.02;;;3.90;99.90;;;;;;5021636;28;20073;-89
2024/01/05 10:10:49;;;;;;;13.02;7.80;;;3.70;99.90;;;;;;5007957;28;20514;-89
2024/01/05 10:13:16;;;;;;;14.35;8.27;;;4.40;99.90;;;;;;5018251;28;20516;-89
2024/01/05 10:16:02;;;;;;;14.30;8.10;;;3.70;99.90;;;;;;5011759;28;20045;-88
2024/01/05 10:18:29;;;;;;;14.95;8.27;;;4.80;99.90;;;;;;4990595;28;20117;-89
2024/01/05 10:20:56;;;;;;;14.13;7.82;;;4.40;99.90;;;;;;4990506;28;20046;-88
2024/01/05 10:23:23;;;;;;;14.18;7.78;;;5.50;99.90;;;;;;4989052;28;20112;-88
2024/01/05 10:25:51;;;;;;;14.70;8.13;;;4.80;99.90;;;;;;5011384;28;20038;-89
2024/01/05 10:28:32;;;;;;;13.63;8.02;;;3.90;99.90;;;;;;4984613;28;20036;-88
2024/01/05 10:31:14;;;;;;;14.38;8.15;;;4.20;99.90;;;;;;5004835;28;20038;-88
2024/01/05 10:33:54;;;;;;;13.32;7.55;;;4.00;99.90;;;;;;5041526;28;20499;-89
2024/01/05 10:36:25;;;;;;;14.27;7.18;;;4.10;99.90;;;;;;5029085;28;20070;-89
2024/01/05 10:38:51;;;;;;;14.55;7.88;;;5.40;99.90;;;;;;4984663;28;20038;-89
2024/01/05 10:41:22;;;;;;;12.88;7.00;;;4.80;99.90;;;;;;5003548;28;20044;-89
2024/01/05 10:43:49;;;;;;;14.23;7.18;;;4.10;99.90;;;;;;5037344;28;20041;-88
2024/01/05 10:46:18;;;;;;;13.00;7.00;;;5.40;99.90;;;;;;4999248;28;20465;-88
2024/01/05 10:48:44;;;;;;;12.65;7.28;;;6.10;99.90;;;;;;5040132;28;20121;-89
2024/01/05 10:51:19;;;;;;;14.63;7.38;;;4.40;99.90;;;;;;5022435;28;20395;-88
2024/01/05 10:53:46;;;;;;;13.55;7.03;;;5.70;99.90;;;;;;4992600;28;20573;-88
2024/01/05 10:56:13;;;;;;;14.75;7.75;;;4.20;99.90;;;;;;5015106;28;20037;-87
2024/01/05 10:58:39;;;;;;;14.52;7.30;;;5.50;99.90;;;;;;5003340;28;20045;-87
2024/01/05 11:01:09;;;;;;;14.20;7.65;;;5.10;99.90;;;;;;4986001;28;20042;-88
2024/01/05 11:03:42;;;;;;;13.63;7.93;;;4.90;99.90;;;;;;5009509;28;20064;-88
2024/01/05 11:06:10;;;;;;;12.77;6.55;;;4.50;99.90;;;;;;4996585;28;20096;-88
2024/01/05 11:08:47;;;;;;;14.90;7.60;;;4.40;99.90;;;;;;4991178;28;20494;-88
2024/01/05 11:11:28;;;;;;;12.90;7.05;;;4.20;99.90;;;;;;5014726;28;20161;-89
2024/01/05 11:14:12;;;;;;;12.88;6.70;;;4.40;99.90;;;;;;5018248;28;20132;-89
2024/01/05 11:16:44;;;;;;;12.50;7.07;;;5.20;99.90;;;;;;5023488;28;20039;-89
2024/01/05 11:19:09;;;;;;;13.85;7.20;;;4.30;99.90;;;;;;4990623;28;20064;-89
2024/01/05 11:21:44;;;;;;;14.20;7.68;;;4.90;99.90;;;;;;5033360;28;20043;-88
2024/01/05 11:24:12;;;;;;;14.25;7.95;;;4.60;99.90;;;;;;4988380;28;20714;-90
2024/01/05 11:26:42;;;;;;;13.93;7.50;;;4.70;99.90;;;;;;5023759;28;20046;-90
2024/01/05 11:29:47;;;;;;;13.95;7.93;;;3.70;99.90;;;;;;5002541;28;20050;-91
2024/01/05 11:32:32;;;;;;;13.02;7.32;;;4.20;99.90;;;;;;4992334;28;20050;-91
2024/01/05 11:34:58;;;;;;;13.18;7.38;;;4.40;99.90;;;;;;4989801;28;20514;-90
2024/01/05 11:37:31;;;;;;;13.75;7.78;;;4.50;99.90;;;;;;5031903;28;20041;-91
2024/01/05 11:39:57;;;;;;;;;;;5.70;99.90;;;;;;5012022;28;20049;-91
2024/01/05 11:42:33;;;;;;;14.07;8.25;;;5.80;99.90;;;;;;5008051;28;19921;-90
2024/01/05 11:45:00;;;;;;;14.88;8.32;;;4.50;99.90;;;;;;5008517;28;20045;-90
2024/01/05 11:47:46;;;;;;;15.23;8.63;;;6.10;99.90;;;;;;4980345;28;20057;-90
2024/01/05 11:50:35;;;;;;;13.30;7.75;;;5.30;99.90;;;;;;5005156;28;20065;-90
2024/01/05 11:53:10;;;;;;;15.20;8.00;;;4.60;99.90;;;;;;4993829;28;20362;-90
2024/01/05 11:55:40;;;;;;;12.77;7.50;;;4.80;99.90;;;;;;5007798;28;20042;-90
2024/01/05 11:58:12;;;;;;;13.10;7.78;;;4.60;99.90;;;;;;5010778;28;20129;-90
2024/01/05 12:00:40;;;;;;;14.23;7.90;;;5.80;99.90;;;;;;5021498;28;20038;-90
2024/01/05 12:03:05;;;;;;;12.68;6.97;;;5.70;99.90;;;;;;4998503;28;20045;-90
2024/01/05 12:05:31;;;;;;;13.13;7.80;;;6.40;99.90;;;;;;4971877;28;20451;-90
2024/01/05 12:07:57;;;;;;;13.80;7.10;;;6.20;99.90;;;;;;5039458;28;20045;-90
2024/01/05 12:10:27;;;;;;;13.38;6.90;;;6.20;99.90;;;;;;5001462;28;20034;-89
2024/01/05 12:12:57;;;;;;;12.48;6.90;;;5.10;99.90;;;;;;4978284;28;20545;-90
2024/01/05 12:15:23;;;;;;;13.45;7.25;;;5.80;99.90;;;;;;5014871;28;20037;-89
2024/01/05 12:17:49;;;;;;;13.07;6.95;;;4.60;99.90;;;;;;5035171;28;20053;-89
2024/01/05 12:20:16;;;;;;;13.57;6.50;;;4.70;99.90;;;;;;5001159;28;20050;-89
2024/01/05 12:22:44;;;;;;;11.48;6.30;;;4.80;99.90;;;;;;4971431;28;20074;-90
2024/01/05 12:25:10;;;;;;;12.52;6.13;;;5.20;99.90;;;;;;4979141;28;20569;-90
2024/01/05 12:27:40;;;;;;;12.52;6.15;;;4.60;99.90;;;;;;4968651;28;20041;-90
2024/01/05 12:30:07;;;;;;;11.98;6.20;;;4.40;99.90;;;;;;4987272;28;20034;-88
2024/01/05 12:32:33;;;;;;;12.48;6.10;;;4.50;99.90;;;;;;5023419;28;20078;-89
2024/01/05 12:35:00;;;;;;;10.45;5.60;;;5.00;99.90;;;;;;4988451;28;20038;-90
2024/01/05 12:37:26;;;;;;;11.43;5.38;;;4.60;99.90;;;;;;5018878;28;20048;-91
2024/01/05 12:39:52;;;;;;;11.50;5.28;;;4.40;99.90;;;;;;4994764;28;20038;-89
2024/01/05 12:42:17;;;;;;;11.27;5.32;;;5.60;99.90;;;;;;5005090;28;20046;-89
2024/01/05 12:44:44;;;;;;;9.80;5.10;;;5.60;99.90;;;;;;4970097;28;20133;-88
2024/01/05 12:47:10;;;;;;;11.68;6.10;;;4.50;99.90;;;;;;4987914;28;20125;-90